Time;durP1;ratioP1;P1;durP2;ratioP2;P2;SDS_P1;SDS_P2;PMS_P1;PMS_P2;Temp;Humidity;BMP_temperature;BMP_pressure;BME280_temperature;BME280_humidity;BME280_pressure;Samples;Min_cycle;Max_cycle;Signal;HPM_P1;HPM_P2
2023/01/27 00:03:04;;;;;;;6.17;4.13;;;;;;;;;;6238422;28;20284;-85
2023/01/27 00:06:13;;;;;;;4.57;3.70;;;;;;;;;;6261213;28;20290;-85
2023/01/27 00:09:18;;;;;;;3.20;3.00;;;;;;;;;;6260626;28;20302;-84
2023/01/27 00:15:48;;;;;;;2.07;1.97;;;;;;;;;;6260345;28;20327;-84
2023/01/27 00:18:53;;;;;;;1.40;1.40;;;;;;;;;;6260381;28;20301;-85
2023/01/27 00:25:22;;;;;;;1.20;1.20;;;;;;;;;;6248771;28;20300;-86
2023/01/27 00:28:30;;;;;;;1.10;1.10;;;;;;;;;;6236055;28;20471;-84
2023/01/27 00:34:58;;;;;;;1.20;1.10;;;;;;;;;;6241455;28;20295;-85
2023/01/27 00:38:05;;;;;;;2.80;1.20;;;;;;;;;;6259565;28;20579;-83
2023/01/27 00:41:19;;;;;;;1.40;1.40;;;;;;;;;;6260390;28;20310;-83
2023/01/27 00:44:25;;;;;;;1.20;1.10;;;;;;;;;;6260163;28;20290;-83
2023/01/27 00:47:30;;;;;;;1.10;1.10;;;;;;;;;;6242701;28;20295;-84
2023/01/27 00:50:35;;;;;;;1.10;1.10;;;;;;;;;;6259584;28;20311;-84
2023/01/27 00:53:42;;;;;;;1.10;1.10;;;;;;;;;;6259604;28;20445;-83
2023/01/27 00:56:48;;;;;;;1.30;1.30;;;;;;;;;;6260177;28;20315;-83
2023/01/27 00:59:53;;;;;;;1.10;1.10;;;;;;;;;;6259526;28;20298;-84
2023/01/27 01:02:58;;;;;;;1.20;1.20;;;;;;;;;;6259072;28;20286;-84
2023/01/27 01:06:06;;;;;;;1.90;1.13;;;;;;;;;;6242808;28;20615;-84
2023/01/27 01:09:12;;;;;;;1.23;1.20;;;;;;;;;;6259538;28;20306;-84
2023/01/27 01:12:18;;;;;;;1.00;1.00;;;;;;;;;;6259941;28;20303;-83
2023/01/27 01:15:25;;;;;;;1.10;1.10;;;;;;;;;;6259581;28;20303;-84
2023/01/27 01:18:30;;;;;;;1.10;1.10;;;;;;;;;;6242216;28;20302;-84
2023/01/27 01:21:36;;;;;;;1.00;1.00;;;;;;;;;;6242568;28;20298;-84
2023/01/27 01:24:46;;;;;;;1.10;1.10;;;;;;;;;;6241895;28;20298;-84
2023/01/27 01:27:51;;;;;;;1.10;1.10;;;;;;;;;;6258838;28;20311;-83
2023/01/27 01:31:00;;;;;;;1.43;1.10;;;;;;;;;;6243022;28;20295;-86
2023/01/27 01:34:05;;;;;;;1.20;1.20;;;;;;;;;;6259360;28;20299;-85
2023/01/27 01:37:12;;;;;;;0.90;0.90;;;;;;;;;;6232895;28;20294;-84
2023/01/27 01:40:22;;;;;;;1.93;1.67;;;;;;;;;;6241996;28;20297;-85
2023/01/27 01:43:29;;;;;;;1.00;1.00;;;;;;;;;;6241419;28;20306;-84
2023/01/27 01:46:35;;;;;;;1.10;1.10;;;;;;;;;;6259493;28;20301;-85
2023/01/27 01:49:41;;;;;;;1.20;1.10;;;;;;;;;;6241740;28;20298;-85
2023/01/27 01:52:55;;;;;;;3.10;1.17;;;;;;;;;;6258713;28;20304;-85
2023/01/27 01:56:09;;;;;;;1.27;1.10;;;;;;;;;;6242445;28;20282;-84
2023/01/27 01:59:21;;;;;;;1.70;1.20;;;;;;;;;;6260461;28;20294;-84
2023/01/27 02:02:27;;;;;;;1.20;1.20;;;;;;;;;;6267060;23;20299;-76
2023/01/27 02:05:35;;;;;;;1.33;1.33;;;;;;;;;;6238502;28;20290;-75
2023/01/27 02:08:41;;;;;;;1.53;1.03;;;;;;;;;;6238271;28;20282;-75
2023/01/27 02:11:48;;;;;;;1.33;1.30;;;;;;;;;;6239272;28;20290;-75
2023/01/27 02:14:53;;;;;;;1.07;1.07;;;;;;;;;;6238646;28;20302;-75
2023/01/27 02:17:59;;;;;;;0.97;0.97;;;;;;;;;;6238458;28;20306;-75
2023/01/27 02:21:05;;;;;;;1.13;1.07;;;;;;;;;;6221670;28;20335;-76
2023/01/27 02:24:14;;;;;;;2.07;1.10;;;;;;;;;;6238424;28;20299;-75
2023/01/27 02:27:20;;;;;;;0.97;0.90;;;;;;;;;;6239044;28;20375;-75
2023/01/27 02:30:26;;;;;;;1.27;1.20;;;;;;;;;;6238126;28;20307;-75
2023/01/27 02:33:31;;;;;;;0.80;0.80;;;;;;;;;;6221028;28;20296;-75
2023/01/27 02:36:40;;;;;;;2.40;1.23;;;;;;;;;;6221438;28;20311;-75
2023/01/27 02:39:46;;;;;;;1.20;1.20;;;;;;;;;;6238324;28;20363;-75
2023/01/27 02:42:54;;;;;;;1.17;1.17;;;;;;;;;;6238228;28;20306;-75
2023/01/27 02:46:00;;;;;;;0.97;0.97;;;;;;;;;;6238612;28;20294;-75
2023/01/27 02:49:05;;;;;;;1.00;1.00;;;;;;;;;;6221010;28;20295;-75
2023/01/27 02:52:12;;;;;;;1.00;1.00;;;;;;;;;;6221342;28;20291;-76
2023/01/27 02:55:18;;;;;;;2.90;1.30;;;;;;;;;;6220827;28;20302;-76
2023/01/27 02:58:25;;;;;;;0.90;0.90;;;;;;;;;;6237919;28;20294;-75
2023/01/27 03:01:35;;;;;;;1.17;1.10;;;;;;;;;;6220822;28;20293;-75
2023/01/27 03:04:40;;;;;;;1.10;1.10;;;;;;;;;;6196340;28;20431;-76
2023/01/27 03:07:46;;;;;;;1.20;1.20;;;;;;;;;;6196189;28;20300;-76
2023/01/27 03:10:52;;;;;;;1.00;1.00;;;;;;;;;;6195558;28;20276;-76
2023/01/27 03:14:00;;;;;;;1.20;1.10;;;;;;;;;;6195593;28;20300;-75
2023/01/27 03:20:28;;;;;;;2.00;1.17;;;;;;;;;;6195483;28;20299;-75
2023/01/27 03:23:34;;;;;;;1.00;1.00;;;;;;;;;;6195292;28;20389;-75
2023/01/27 03:26:40;;;;;;;0.97;0.97;;;;;;;;;;6195938;28;20291;-76
2023/01/27 03:29:54;;;;;;;1.10;1.10;;;;;;;;;;6212104;28;20298;-75
2023/01/27 03:33:02;;;;;;;1.20;1.20;;;;;;;;;;6194832;28;20319;-76
2023/01/27 03:46:37;;;;;;;1.40;1.07;;;;;;;;;;6195723;28;20292;-76
2023/01/27 03:49:42;;;;;;;1.10;1.10;;;;;;;;;;6212136;28;20317;-76
2023/01/27 03:53:02;;;;;;;1.00;1.00;;;;;;;;;;6210415;28;20276;-76
2023/01/27 03:56:08;;;;;;;0.90;0.90;;;;;;;;;;6212801;28;20295;-76
2023/01/27 03:59:13;;;;;;;1.10;1.07;;;;;;;;;;6211347;28;20294;-75
2023/01/27 04:09:07;;;;;;;1.80;1.00;;;;;;;;;;6235741;28;20299;-75
2023/01/27 04:12:13;;;;;;;1.70;1.03;;;;;;;;;;6235947;28;20310;-76
2023/01/27 04:15:18;;;;;;;1.17;1.17;;;;;;;;;;6218021;28;20303;-76
2023/01/27 04:18:25;;;;;;;1.00;1.00;;;;;;;;;;6235592;28;20290;-76
2023/01/27 04:21:33;;;;;;;3.13;1.10;;;;;;;;;;6235797;28;20318;-75
2023/01/27 04:24:38;;;;;;;1.00;1.00;;;;;;;;;;6235841;28;20599;-76
2023/01/27 04:27:43;;;;;;;1.00;1.00;;;;;;;;;;6235697;28;20294;-77
2023/01/27 04:30:48;;;;;;;1.27;1.20;;;;;;;;;;6236195;28;20289;-75
2023/01/27 04:33:55;;;;;;;1.50;1.40;;;;;;;;;;6235545;28;20300;-77
2023/01/27 04:37:02;;;;;;;1.30;1.10;;;;;;;;;;6218583;28;20301;-75
2023/01/27 04:40:09;;;;;;;1.00;1.00;;;;;;;;;;6234980;28;20302;-76
2023/01/27 04:43:14;;;;;;;1.17;1.13;;;;;;;;;;6235241;28;20294;-75
2023/01/27 04:46:24;;;;;;;1.70;1.20;;;;;;;;;;6236095;28;20293;-75
2023/01/27 04:49:31;;;;;;;1.03;1.03;;;;;;;;;;6235060;28;20481;-76
2023/01/27 04:52:36;;;;;;;1.00;1.00;;;;;;;;;;6236218;28;20589;-76
2023/01/27 04:55:42;;;;;;;1.20;1.20;;;;;;;;;;6217720;28;20299;-76
2023/01/27 04:58:47;;;;;;;1.10;1.10;;;;;;;;;;6213157;28;20319;-76
2023/01/27 05:01:52;;;;;;;1.20;1.10;;;;;;;;;;6235190;28;20548;-76
2023/01/27 05:05:03;;;;;;;1.10;1.10;;;;;;;;;;6235771;28;20297;-77
2023/01/27 05:08:10;;;;;;;1.13;1.13;;;;;;;;;;6234858;28;20294;-75
2023/01/27 05:11:15;;;;;;;2.10;1.00;;;;;;;;;;6220865;28;20286;-76
2023/01/27 05:14:22;;;;;;;2.00;1.50;;;;;;;;;;6193725;28;20302;-76
2023/01/27 05:17:32;;;;;;;1.10;1.10;;;;;;;;;;6211010;28;20586;-76
2023/01/27 05:20:39;;;;;;;1.20;1.20;;;;;;;;;;6210785;28;20471;-76
2023/01/27 05:23:44;;;;;;;1.10;1.10;;;;;;;;;;6210258;28;20293;-75
2023/01/27 05:26:50;;;;;;;1.10;1.10;;;;;;;;;;6211151;28;20297;-75
2023/01/27 05:29:55;;;;;;;1.90;1.10;;;;;;;;;;6210568;28;20301;-75
2023/01/27 05:33:01;;;;;;;1.10;1.10;;;;;;;;;;6211847;28;20294;-75
2023/01/27 05:36:13;;;;;;;1.40;1.40;;;;;;;;;;6215640;28;20306;-76
2023/01/27 05:39:18;;;;;;;1.30;1.20;;;;;;;;;;6215114;28;20307;-75
2023/01/27 05:42:23;;;;;;;1.10;1.10;;;;;;;;;;6215344;28;20289;-75
2023/01/27 05:45:29;;;;;;;1.10;1.10;;;;;;;;;;6214859;28;20354;-75
2023/01/27 05:48:35;;;;;;;1.03;1.03;;;;;;;;;;6214804;28;20291;-78
2023/01/27 05:51:42;;;;;;;1.40;1.07;;;;;;;;;;6215213;28;20298;-75
2023/01/27 05:54:47;;;;;;;1.30;1.20;;;;;;;;;;6214621;28;20297;-76
2023/01/27 05:57:54;;;;;;;1.20;1.20;;;;;;;;;;6214735;28;20290;-76
2023/01/27 06:01:09;;;;;;;1.20;1.20;;;;;;;;;;6215157;28;20590;-75
2023/01/27 06:04:14;;;;;;;0.97;0.97;;;;;;;;;;6235148;28;20306;-76
2023/01/27 06:07:21;;;;;;;1.27;1.20;;;;;;;;;;6239349;28;20300;-76
2023/01/27 06:10:26;;;;;;;1.10;1.10;;;;;;;;;;6238418;28;20294;-76
2023/01/27 06:13:34;;;;;;;2.27;1.23;;;;;;;;;;6238810;28;20298;-76
2023/01/27 06:16:39;;;;;;;2.87;1.20;;;;;;;;;;6222155;28;20290;-75
2023/01/27 06:19:45;;;;;;;2.73;1.17;;;;;;;;;;6226057;28;20318;-76
2023/01/27 06:22:52;;;;;;;1.90;1.30;;;;;;;;;;6212936;28;20277;-77
2023/01/27 06:26:00;;;;;;;1.57;1.27;;;;;;;;;;6214445;28;20578;-75
2023/01/27 06:29:05;;;;;;;1.20;1.20;;;;;;;;;;6213816;28;20306;-74
2023/01/27 06:32:11;;;;;;;2.87;1.13;;;;;;;;;;6213730;28;20293;-75
2023/01/27 06:35:17;;;;;;;1.60;1.23;;;;;;;;;;6213479;28;20295;-75
2023/01/27 06:38:23;;;;;;;1.10;1.10;;;;;;;;;;6213943;28;20295;-76
2023/01/27 06:41:28;;;;;;;1.43;1.33;;;;;;;;;;6214199;28;20290;-76
2023/01/27 06:44:34;;;;;;;2.57;1.10;;;;;;;;;;6212710;28;20295;-76
2023/01/27 06:47:40;;;;;;;1.90;1.30;;;;;;;;;;6213554;28;20289;-75
2023/01/27 06:50:45;;;;;;;1.47;1.47;;;;;;;;;;6213877;28;20297;-75
2023/01/27 06:53:52;;;;;;;1.47;1.33;;;;;;;;;;6213203;28;20307;-77
2023/01/27 06:56:57;;;;;;;1.37;1.30;;;;;;;;;;6213664;28;20291;-78
2023/01/27 07:00:03;;;;;;;1.37;1.37;;;;;;;;;;6212881;28;20298;-78
2023/01/27 07:03:11;;;;;;;5.80;1.60;;;;;;;;;;6212962;28;20294;-77
2023/01/27 07:06:17;;;;;;;1.50;1.40;;;;;;;;;;6213445;28;20553;-76
2023/01/27 07:09:24;;;;;;;1.60;1.20;;;;;;;;;;6212698;28;20611;-75
2023/01/27 07:12:30;;;;;;;1.50;1.13;;;;;;;;;;6234328;28;20445;-76
2023/01/27 07:15:36;;;;;;;1.20;1.20;;;;;;;;;;6237302;28;20581;-76
2023/01/27 07:18:41;;;;;;;2.17;1.10;;;;;;;;;;6237131;28;20286;-76
2023/01/27 07:21:46;;;;;;;2.10;1.10;;;;;;;;;;6237290;28;20297;-76
2023/01/27 07:24:54;;;;;;;1.20;1.20;;;;;;;;;;6236940;28;20686;-75
2023/01/27 07:28:00;;;;;;;1.20;1.20;;;;;;;;;;6236736;28;20294;-75
2023/01/27 07:31:05;;;;;;;1.20;1.20;;;;;;;;;;6237396;28;20313;-75
2023/01/27 07:34:12;;;;;;;1.30;1.20;;;;;;;;;;6236925;28;20470;-75
2023/01/27 07:37:17;;;;;;;1.30;1.20;;;;;;;;;;6237024;28;20574;-76
2023/01/27 07:40:24;;;;;;;1.00;1.00;;;;;;;;;;6236433;28;20302;-76
2023/01/27 07:43:29;;;;;;;4.77;1.20;;;;;;;;;;6236528;28;20307;-76
2023/01/27 07:46:35;;;;;;;1.17;1.17;;;;;;;;;;6219290;28;20301;-76
2023/01/27 07:49:40;;;;;;;1.80;1.20;;;;;;;;;;6235994;28;20310;-75
2023/01/27 07:52:45;;;;;;;1.33;1.10;;;;;;;;;;6236542;28;20289;-76
2023/01/27 07:55:52;;;;;;;2.73;1.20;;;;;;;;;;6235892;28;20581;-77
2023/01/27 07:58:57;;;;;;;1.47;1.20;;;;;;;;;;6236789;28;20595;-76
2023/01/27 08:02:02;;;;;;;1.20;1.20;;;;;;;;;;6236061;28;20498;-75
2023/01/27 08:05:08;;;;;;;1.20;1.20;;;;;;;;;;6236204;28;20311;-75
2023/01/27 08:08:15;;;;;;;1.07;1.07;;;;;;;;;;6235804;28;20296;-76
2023/01/27 08:11:21;;;;;;;1.50;1.50;;;;;;;;;;6219195;28;20299;-76
2023/01/27 08:14:26;;;;;;;1.73;1.27;;;;;;;;;;6235875;28;20290;-75
2023/01/27 08:17:31;;;;;;;1.50;1.30;;;;;;;;;;6218690;28;20555;-75
2023/01/27 08:20:37;;;;;;;1.30;1.30;;;;;;;;;;6235601;28;20288;-75
2023/01/27 08:23:42;;;;;;;1.30;1.30;;;;;;;;;;6218458;28;20295;-77
2023/01/27 08:26:48;;;;;;;1.70;1.23;;;;;;;;;;6235994;28;20297;-75
2023/01/27 08:29:54;;;;;;;1.20;1.20;;;;;;;;;;6218449;28;20303;-76
2023/01/27 08:32:59;;;;;;;1.40;1.40;;;;;;;;;;6235019;28;20298;-76
2023/01/27 08:36:07;;;;;;;1.37;1.37;;;;;;;;;;6236465;28;20311;-75
2023/01/27 08:39:12;;;;;;;1.10;1.10;;;;;;;;;;6235340;28;20298;-76
2023/01/27 08:42:20;;;;;;;1.40;1.30;;;;;;;;;;6236510;28;20583;-75
2023/01/27 08:45:26;;;;;;;2.27;1.40;;;;;;;;;;6235272;28;20308;-75
2023/01/27 08:48:32;;;;;;;1.10;1.10;;;;;;;;;;6235459;28;20307;-75
2023/01/27 08:51:37;;;;;;;1.13;1.13;;;;;;;;;;6236126;28;20307;-75
2023/01/27 08:54:42;;;;;;;2.97;1.17;;;;;;;;;;6235660;28;20440;-74
2023/01/27 08:57:49;;;;;;;1.13;1.10;;;;;;;;;;6235073;28;20313;-76
2023/01/27 09:00:55;;;;;;;3.40;1.27;;;;;;;;;;6236062;28;20301;-75
2023/01/27 09:04:00;;;;;;;1.30;1.30;;;;;;;;;;6234816;28;20297;-76
2023/01/27 09:07:05;;;;;;;1.17;1.17;;;;;;;;;;6235556;28;20380;-75
2023/01/27 09:10:13;;;;;;;1.47;1.10;;;;;;;;;;6240130;28;20289;-76
2023/01/27 09:13:22;;;;;;;1.43;1.20;;;;;;;;;;6240155;28;20551;-76
2023/01/27 09:16:27;;;;;;;1.17;1.17;;;;;;;;;;6240455;28;20306;-75
2023/01/27 09:19:33;;;;;;;1.07;1.07;;;;;;;;;;6240104;28;20313;-74
2023/01/27 09:22:40;;;;;;;2.30;1.20;;;;;;;;;;6239474;28;20294;-75
2023/01/27 09:25:45;;;;;;;2.07;1.00;;;;;;;;;;6240376;28;20298;-75
2023/01/27 09:28:52;;;;;;;2.47;1.10;;;;;;;;;;6221977;28;20291;-75
2023/01/27 09:31:57;;;;;;;1.23;1.23;;;;;;;;;;6239517;28;20283;-75
2023/01/27 09:35:03;;;;;;;5.17;1.30;;;;;;;;;;6239700;28;20293;-76
2023/01/27 09:38:08;;;;;;;1.00;1.00;;;;;;;;;;6239524;28;20307;-76
2023/01/27 09:41:45;;;;;;;1.03;1.03;;;;;;;;;;6238667;28;20291;-75
2023/01/27 09:45:21;;;;;;;2.77;1.30;;;;;;;;;;6238273;28;20297;-75
2023/01/27 09:48:38;;;;;;;1.30;1.20;;;;;;;;;;6239372;28;20288;-76
2023/01/27 09:51:52;;;;;;;1.53;1.13;;;;;;;;;;6240059;28;20291;-75
2023/01/27 09:55:07;;;;;;;1.20;1.20;;;;;;;;;;6239664;28;20305;-75
2023/01/27 09:58:21;;;;;;;3.40;1.00;;;;;;;;;;6239263;28;20299;-76
2023/01/27 10:01:34;;;;;;;1.13;1.13;;;;;;;;;;6239564;28;20298;-75
2023/01/27 10:05:15;;;;;;;1.50;1.40;;;;;;;;;;6238168;28;20665;-76
2023/01/27 10:08:31;;;;;;;1.60;1.07;;;;;;;;;;6237188;28;20596;-75
2023/01/27 10:11:43;;;;;;;2.00;1.90;;;;;;;;;;6222173;28;20300;-75
2023/01/27 10:14:54;;;;;;;3.77;1.40;;;;;;;;;;6238794;28;20478;-75
2023/01/27 10:18:06;;;;;;;1.00;1.00;;;;;;;;;;6237073;28;20302;-75
2023/01/27 10:21:17;;;;;;;1.10;1.10;;;;;;;;;;6221190;28;20307;-76
2023/01/27 10:24:33;;;;;;;1.03;1.00;;;;;;;;;;6238640;28;20297;-76
2023/01/27 10:27:39;;;;;;;1.10;1.07;;;;;;;;;;6239906;28;20305;-75
2023/01/27 10:30:51;;;;;;;1.20;1.10;;;;;;;;;;6238061;28;20377;-75
2023/01/27 10:34:02;;;;;;;3.03;1.50;;;;;;;;;;6238750;28;20295;-76
2023/01/27 10:37:17;;;;;;;1.40;1.30;;;;;;;;;;6238520;28;20297;-75
2023/01/27 10:40:29;;;;;;;1.27;1.27;;;;;;;;;;6238443;28;20315;-75
2023/01/27 10:43:42;;;;;;;2.00;1.30;;;;;;;;;;6237834;28;20292;-75
2023/01/27 10:46:54;;;;;;;1.20;1.10;;;;;;;;;;6237259;28;20275;-76
2023/01/27 10:50:03;;;;;;;2.47;1.10;;;;;;;;;;6238380;28;20325;-75
2023/01/27 10:53:14;;;;;;;1.20;1.10;;;;;;;;;;6238296;28;20286;-75
2023/01/27 10:56:26;;;;;;;1.17;1.17;;;;;;;;;;6238635;28;20303;-75
2023/01/27 10:59:40;;;;;;;3.50;1.10;;;;;;;;;;6238868;28;20315;-74
2023/01/27 11:03:22;;;;;;;5.80;1.30;;;;;;;;;;6228835;28;20394;-75
2023/01/27 11:06:35;;;;;;;1.30;1.20;;;;;;;;;;6224244;28;20303;-75
2023/01/27 11:09:47;;;;;;;1.40;0.97;;;;;;;;;;6220433;28;20307;-75
2023/01/27 11:12:55;;;;;;;1.30;1.10;;;;;;;;;;6237299;28;20304;-75
2023/01/27 11:16:01;;;;;;;3.50;1.10;;;;;;;;;;6238066;28;20295;-76
2023/01/27 11:19:14;;;;;;;1.10;1.10;;;;;;;;;;6237639;28;20291;-78
2023/01/27 11:22:23;;;;;;;1.37;1.23;;;;;;;;;;6237666;28;20301;-75
2023/01/27 11:25:34;;;;;;;1.47;1.30;;;;;;;;;;6237309;28;20293;-75
2023/01/27 11:28:42;;;;;;;3.10;1.20;;;;;;;;;;6236453;28;20307;-75
2023/01/27 11:31:53;;;;;;;1.20;1.20;;;;;;;;;;6236564;28;20269;-78
2023/01/27 11:35:04;;;;;;;1.00;1.00;;;;;;;;;;6237650;28;20319;-75
2023/01/27 11:38:15;;;;;;;1.13;0.97;;;;;;;;;;6236945;28;20303;-76
2023/01/27 11:41:20;;;;;;;3.90;1.03;;;;;;;;;;6236937;28;20564;-75
2023/01/27 11:44:28;;;;;;;1.90;1.83;;;;;;;;;;6236501;28;20315;-75
2023/01/27 11:47:36;;;;;;;2.47;1.57;;;;;;;;;;6240592;28;20296;-75
2023/01/27 11:50:45;;;;;;;2.90;1.37;;;;;;;;;;6218748;28;20292;-75
2023/01/27 11:53:55;;;;;;;0.90;0.90;;;;;;;;;;6236603;28;20300;-75
2023/01/27 11:57:00;;;;;;;1.00;1.00;;;;;;;;;;6236157;28;20293;-76
2023/01/27 12:00:11;;;;;;;1.43;1.43;;;;;;;;;;6236053;28;20295;-75
2023/01/27 12:03:21;;;;;;;4.43;1.00;;;;;;;;;;6236004;28;20299;-75
2023/01/27 12:06:33;;;;;;;3.53;0.87;;;;;;;;;;6236406;28;20299;-75
2023/01/27 12:09:41;;;;;;;2.27;0.80;;;;;;;;;;6236056;28;20303;-76
2023/01/27 12:12:46;;;;;;;1.67;1.23;;;;;;;;;;6235990;28;20294;-75
2023/01/27 12:15:54;;;;;;;3.30;1.50;;;;;;;;;;6236671;28;20304;-74
2023/01/27 12:19:03;;;;;;;2.40;1.23;;;;;;;;;;6235983;28;20304;-76
2023/01/27 12:22:13;;;;;;;1.40;1.30;;;;;;;;;;6219397;28;20599;-75
2023/01/27 12:25:26;;;;;;;1.30;1.10;;;;;;;;;;6236424;28;20299;-74
2023/01/27 12:28:34;;;;;;;1.57;1.20;;;;;;;;;;6237161;28;20300;-76
2023/01/27 12:31:47;;;;;;;2.50;1.10;;;;;;;;;;6236538;28;20296;-75
2023/01/27 12:34:55;;;;;;;1.77;1.43;;;;;;;;;;6235196;28;20297;-76
2023/01/27 12:38:03;;;;;;;1.40;1.30;;;;;;;;;;6235888;28;20295;-75
2023/01/27 12:41:11;;;;;;;1.50;1.23;;;;;;;;;;6236048;28;20303;-77
2023/01/27 12:44:18;;;;;;;1.00;1.00;;;;;;;;;;6235179;28;20401;-76
2023/01/27 12:47:27;;;;;;;4.27;1.47;;;;;;;;;;6236845;28;20599;-76
2023/01/27 12:51:04;;;;;;;1.20;1.20;;;;;;;;;;6235338;28;20511;-75
2023/01/27 12:54:21;;;;;;;3.30;1.23;;;;;;;;;;6235328;28;20291;-75
2023/01/27 12:57:31;;;;;;;1.00;1.00;;;;;;;;;;6235537;28;20295;-75
2023/01/27 13:00:37;;;;;;;1.27;1.27;;;;;;;;;;6235816;28;20591;-76
2023/01/27 13:03:43;;;;;;;1.70;1.60;;;;;;;;;;6218231;28;20350;-75
2023/01/27 13:06:51;;;;;;;1.00;1.00;;;;;;;;;;6236316;28;20295;-77
2023/01/27 13:09:58;;;;;;;1.13;1.13;;;;;;;;;;6235568;28;20344;-76
2023/01/27 13:13:19;;;;;;;1.10;1.00;;;;;;;;;;6235475;28;20289;-77
2023/01/27 13:16:27;;;;;;;2.00;0.93;;;;;;;;;;6236054;28;20293;-76
2023/01/27 13:19:38;;;;;;;1.00;1.00;;;;;;;;;;6235118;28;20303;-77
2023/01/27 13:22:49;;;;;;;2.37;0.90;;;;;;;;;;6218287;28;20295;-75
2023/01/27 13:26:02;;;;;;;1.00;0.90;;;;;;;;;;6218106;28;20464;-75
2023/01/27 13:29:15;;;;;;;1.17;1.00;;;;;;;;;;6235636;28;20309;-75
2023/01/27 13:32:24;;;;;;;1.50;1.40;;;;;;;;;;6236641;28;20473;-75
2023/01/27 13:35:34;;;;;;;1.10;1.10;;;;;;;;;;6236088;28;20308;-74
2023/01/27 13:38:45;;;;;;;1.10;1.00;;;;;;;;;;6217953;28;20301;-75
2023/01/27 13:41:54;;;;;;;2.67;1.10;;;;;;;;;;6235339;28;20296;-76
2023/01/27 13:45:04;;;;;;;1.20;1.20;;;;;;;;;;6234820;28;20300;-77
2023/01/27 13:48:16;;;;;;;2.10;1.43;;;;;;;;;;6234748;28;20291;-75
2023/01/27 13:51:23;;;;;;;4.17;1.10;;;;;;;;;;6235219;28;20311;-75
2023/01/27 13:54:29;;;;;;;1.20;1.10;;;;;;;;;;6236324;28;20295;-76
2023/01/27 13:57:52;;;;;;;1.17;1.17;;;;;;;;;;6239300;28;20298;-74
2023/01/27 14:01:04;;;;;;;1.10;1.10;;;;;;;;;;6239082;28;20292;-74
2023/01/27 14:04:31;;;;;;;1.53;1.20;;;;;;;;;;6238607;28;20296;-75
2023/01/27 14:07:41;;;;;;;3.20;1.13;;;;;;;;;;6239459;28;20584;-75
2023/01/27 14:10:59;;;;;;;1.00;1.00;;;;;;;;;;6238242;28;20297;-75
2023/01/27 14:14:26;;;;;;;1.10;1.10;;;;;;;;;;6237929;28;20300;-76
2023/01/27 14:17:42;;;;;;;1.03;1.03;;;;;;;;;;6239276;28;20296;-75
2023/01/27 14:20:56;;;;;;;1.30;1.10;;;;;;;;;;6238578;28;20302;-74
2023/01/27 14:24:05;;;;;;;1.20;1.10;;;;;;;;;;6238674;28;20297;-76
2023/01/27 14:27:14;;;;;;;1.80;1.00;;;;;;;;;;6239398;28;20458;-74
2023/01/27 14:30:24;;;;;;;1.70;1.03;;;;;;;;;;6238808;28;20299;-76
2023/01/27 14:33:42;;;;;;;1.10;1.10;;;;;;;;;;6237746;28;20288;-76
2023/01/27 14:36:51;;;;;;;3.93;1.10;;;;;;;;;;6221917;28;20625;-75
2023/01/27 14:40:11;;;;;;;1.40;1.00;;;;;;;;;;6238563;28;20304;-76
2023/01/27 14:43:24;;;;;;;0.90;0.90;;;;;;;;;;6238030;28;20481;-75
2023/01/27 14:46:48;;;;;;;2.00;1.40;;;;;;;;;;6238365;28;20300;-74
2023/01/27 14:50:04;;;;;;;1.50;1.40;;;;;;;;;;6237379;28;20302;-75
2023/01/27 14:53:33;;;;;;;4.77;1.40;;;;;;;;;;6238216;28;20382;-77
2023/01/27 14:56:43;;;;;;;1.57;1.47;;;;;;;;;;6238347;28;20479;-75
2023/01/27 14:59:54;;;;;;;2.53;1.60;;;;;;;;;;6237565;28;20295;-76
2023/01/27 15:03:26;;;;;;;3.60;1.50;;;;;;;;;;6237353;28;20295;-75
2023/01/27 15:06:41;;;;;;;2.50;1.30;;;;;;;;;;6237530;28;20289;-76
2023/01/27 15:10:20;;;;;;;2.50;1.40;;;;;;;;;;6237711;28;20307;-75
2023/01/27 15:13:37;;;;;;;6.13;1.90;;;;;;;;;;6213354;28;20305;-75
2023/01/27 15:16:50;;;;;;;1.50;1.50;;;;;;;;;;6213496;28;20472;-76
2023/01/27 15:20:24;;;;;;;4.73;1.70;;;;;;;;;;6211841;28;20310;-75
2023/01/27 15:23:47;;;;;;;1.60;1.50;;;;;;;;;;6212747;28;20607;-75
2023/01/27 15:26:53;;;;;;;3.13;1.73;;;;;;;;;;6213516;28;20602;-74
2023/01/27 15:30:06;;;;;;;6.63;1.40;;;;;;;;;;6212323;28;20584;-74
2023/01/27 15:33:46;;;;;;;4.50;1.50;;;;;;;;;;6212378;28;20612;-74
2023/01/27 15:37:02;;;;;;;6.40;1.83;;;;;;;;;;6203380;28;20296;-75
2023/01/27 15:40:16;;;;;;;2.83;2.00;;;;;;;;;;6211885;28;20312;-75
2023/01/27 15:43:22;;;;;;;2.47;1.90;;;;;;;;;;6212170;28;20294;-74
2023/01/27 15:46:31;;;;;;;2.10;1.90;;;;;;;;;;6211814;28;20620;-75
2023/01/27 15:49:40;;;;;;;2.50;1.93;;;;;;;;;;6212366;28;20304;-74
2023/01/27 15:52:46;;;;;;;1.90;1.80;;;;;;;;;;6210156;28;20304;-75
2023/01/27 15:55:55;;;;;;;2.40;1.97;;;;;;;;;;6211285;28;20272;-76
2023/01/27 15:59:05;;;;;;;1.97;1.97;;;;;;;;;;6211503;28;20303;-76
2023/01/27 16:02:17;;;;;;;3.07;2.90;;;;;;;;;;6211934;28;20299;-74
2023/01/27 16:05:25;;;;;;;2.43;2.37;;;;;;;;;;6211633;28;20300;-76
2023/01/27 16:08:32;;;;;;;2.10;2.00;;;;;;;;;;6211371;28;20297;-75
2023/01/27 16:11:43;;;;;;;2.50;2.40;;;;;;;;;;6229223;28;20442;-75
2023/01/27 16:14:49;;;;;;;2.50;2.10;;;;;;;;;;6218122;28;20294;-74
2023/01/27 16:18:02;;;;;;;2.07;1.90;;;;;;;;;;6234659;28;20303;-76
2023/01/27 16:21:27;;;;;;;2.93;2.20;;;;;;;;;;6236220;28;20302;-76
2023/01/27 16:24:36;;;;;;;2.33;2.00;;;;;;;;;;6235837;28;20294;-77
2023/01/27 16:27:46;;;;;;;7.60;2.20;;;;;;;;;;6235613;28;20286;-76
2023/01/27 16:31:02;;;;;;;3.93;2.30;;;;;;;;;;6235906;28;20303;-74
2023/01/27 16:34:15;;;;;;;2.37;2.20;;;;;;;;;;6218430;28;20295;-75
2023/01/27 16:37:23;;;;;;;3.57;2.10;;;;;;;;;;6235754;28;20299;-74
2023/01/27 16:40:30;;;;;;;2.60;2.40;;;;;;;;;;6235545;28;20589;-74
2023/01/27 16:43:43;;;;;;;5.50;2.30;;;;;;;;;;6235638;28;20299;-74
2023/01/27 16:46:51;;;;;;;3.47;2.13;;;;;;;;;;6232023;28;20283;-75
2023/01/27 16:49:55;;;;;;;3.60;2.70;;;;;;;;;;6235434;28;20298;-75
2023/01/27 16:53:02;;;;;;;3.03;2.67;;;;;;;;;;6218029;28;20299;-74
2023/01/27 16:56:14;;;;;;;8.90;2.50;;;;;;;;;;6235432;28;20303;-77
2023/01/27 16:59:23;;;;;;;2.47;2.27;;;;;;;;;;6235299;28;20295;-76
2023/01/27 17:02:30;;;;;;;3.00;2.43;;;;;;;;;;6235258;28;20477;-73
2023/01/27 17:05:36;;;;;;;4.57;2.77;;;;;;;;;;6235092;28;20292;-74
2023/01/27 17:08:44;;;;;;;2.73;2.50;;;;;;;;;;6217826;28;20298;-73
2023/01/27 17:11:50;;;;;;;2.97;2.70;;;;;;;;;;6235543;28;20302;-75
2023/01/27 17:14:56;;;;;;;2.90;2.70;;;;;;;;;;6235268;28;20294;-73
2023/01/27 17:18:04;;;;;;;4.17;2.73;;;;;;;;;;6235065;28;20301;-74
2023/01/27 17:21:10;;;;;;;3.80;3.20;;;;;;;;;;6235810;28;20302;-73
2023/01/27 17:24:18;;;;;;;4.90;2.83;;;;;;;;;;6217398;28;20345;-73
2023/01/27 17:27:26;;;;;;;2.80;2.50;;;;;;;;;;6235458;28;20445;-74
2023/01/27 17:30:38;;;;;;;2.37;2.17;;;;;;;;;;6238126;28;20482;-73
2023/01/27 17:33:46;;;;;;;3.90;2.43;;;;;;;;;;6239549;28;20305;-73
2023/01/27 17:37:14;;;;;;;2.10;1.90;;;;;;;;;;6239787;28;20293;-73
2023/01/27 17:40:21;;;;;;;2.40;2.30;;;;;;;;;;6219978;28;20293;-77
2023/01/27 17:43:30;;;;;;;2.57;2.47;;;;;;;;;;6239441;28;20385;-75
2023/01/27 17:46:37;;;;;;;2.10;2.00;;;;;;;;;;6222615;28;20296;-75
2023/01/27 17:49:43;;;;;;;2.30;2.20;;;;;;;;;;6238100;28;20289;-75
2023/01/27 17:52:49;;;;;;;3.30;2.37;;;;;;;;;;6237844;28;20278;-76
2023/01/27 17:55:58;;;;;;;3.50;2.40;;;;;;;;;;6239269;28;20290;-75
2023/01/27 17:59:06;;;;;;;7.40;2.43;;;;;;;;;;6239010;28;20306;-75
2023/01/27 18:02:20;;;;;;;4.03;2.10;;;;;;;;;;6238950;28;20293;-76
2023/01/27 18:05:28;;;;;;;2.63;2.40;;;;;;;;;;6238779;28;20307;-77
2023/01/27 18:08:34;;;;;;;2.47;2.20;;;;;;;;;;6238656;28;20280;-75
2023/01/27 18:11:40;;;;;;;5.43;2.63;;;;;;;;;;6239648;28;20303;-76
2023/01/27 18:14:45;;;;;;;3.33;3.03;;;;;;;;;;6237862;28;20317;-77
2023/01/27 18:18:00;;;;;;;3.73;3.07;;;;;;;;;;6239116;28;20299;-76
2023/01/27 18:21:12;;;;;;;5.47;3.10;;;;;;;;;;6237102;28;20301;-76
2023/01/27 18:24:20;;;;;;;5.67;3.10;;;;;;;;;;6238301;28;20317;-75
2023/01/27 18:27:28;;;;;;;2.63;2.47;;;;;;;;;;6221914;28;20300;-76
2023/01/27 18:30:34;;;;;;;2.60;2.50;;;;;;;;;;6238297;28;20494;-76
2023/01/27 18:33:41;;;;;;;3.87;2.80;;;;;;;;;;6238781;28;20289;-76
2023/01/27 18:36:53;;;;;;;2.83;2.60;;;;;;;;;;6239581;28;20290;-77
2023/01/27 18:40:27;;;;;;;6.80;2.80;;;;;;;;;;6237990;28;20289;-78
2023/01/27 18:43:33;;;;;;;6.90;2.80;;;;;;;;;;6238131;28;20486;-76
2023/01/27 18:46:38;;;;;;;9.17;2.60;;;;;;;;;;6239308;28;20293;-77
2023/01/27 18:49:45;;;;;;;4.83;2.80;;;;;;;;;;6239023;28;20304;-77
2023/01/27 18:52:51;;;;;;;3.93;3.17;;;;;;;;;;6220124;28;20277;-76
2023/01/27 18:55:57;;;;;;;3.50;3.30;;;;;;;;;;6221076;28;20270;-75
2023/01/27 18:59:04;;;;;;;6.90;4.53;;;;;;;;;;6237873;28;20294;-76
2023/01/27 19:02:15;;;;;;;5.87;3.90;;;;;;;;;;6237981;28;20294;-78
2023/01/27 19:05:23;;;;;;;6.80;3.83;;;;;;;;;;6221026;28;20289;-76
2023/01/27 19:08:29;;;;;;;7.63;4.30;;;;;;;;;;6237367;28;20299;-76
2023/01/27 19:11:34;;;;;;;3.83;3.53;;;;;;;;;;6237975;28;20465;-75
2023/01/27 19:14:40;;;;;;;4.17;3.73;;;;;;;;;;6220485;28;20290;-76
2023/01/27 19:17:46;;;;;;;4.10;3.00;;;;;;;;;;6237118;28;20300;-76
2023/01/27 19:20:53;;;;;;;5.50;3.57;;;;;;;;;;6237762;28;20306;-75
2023/01/27 19:23:59;;;;;;;6.80;3.40;;;;;;;;;;6236612;28;20301;-77
2023/01/27 19:27:04;;;;;;;2.97;2.87;;;;;;;;;;6237903;28;20386;-76